Time;durP1;ratioP1;P1;durP2;ratioP2;P2;SDS_P1;SDS_P2;PMS_P1;PMS_P2;Temp;Humidity;BMP_temperature;BMP_pressure;BME280_temperature;BME280_humidity;BME280_pressure;Samples;Min_cycle;Max_cycle;Signal;HPM_P1;HPM_P2
2023/07/31 00:00:40;;;;;;;6.68;2.70;;;16.20;99.90;;;;;;4958783;28;20042;-86
2023/07/31 00:03:06;;;;;;;3.90;1.40;;;16.20;99.90;;;;;;4974300;28;20031;-86
2023/07/31 00:05:31;;;;;;;6.75;2.03;;;16.20;99.90;;;;;;4974637;28;20471;-86
2023/07/31 00:07:57;;;;;;;6.35;2.35;;;16.10;99.90;;;;;;4958209;28;20042;-86
2023/07/31 00:10:22;;;;;;;7.47;2.70;;;16.10;99.90;;;;;;4974319;28;20039;-85
2023/07/31 00:12:48;;;;;;;8.02;2.65;;;16.10;99.90;;;;;;4974808;28;20130;-86
2023/07/31 00:15:14;;;;;;;4.63;1.67;;;16.10;99.90;;;;;;4974884;28;20038;-86
2023/07/31 00:17:40;;;;;;;6.60;2.58;;;16.00;99.90;;;;;;4974265;28;20045;-86
2023/07/31 00:20:06;;;;;;;6.03;2.00;;;16.00;99.90;;;;;;4986173;28;20042;-87
2023/07/31 00:22:31;;;;;;;6.13;2.58;;;16.00;99.90;;;;;;4994139;28;20070;-87
2023/07/31 00:24:57;;;;;;;7.25;2.80;;;16.00;99.90;;;;;;4994230;28;20080;-86
2023/07/31 00:27:23;;;;;;;4.82;1.52;;;16.00;99.90;;;;;;4977363;28;20045;-87
2023/07/31 00:29:48;;;;;;;4.15;1.38;;;15.90;99.90;;;;;;4993640;28;20045;-87
2023/07/31 00:32:14;;;;;;;7.15;2.67;;;15.90;99.90;;;;;;4978212;28;20042;-87
2023/07/31 00:34:40;;;;;;;5.45;1.40;;;15.90;99.90;;;;;;4978010;28;20513;-86
2023/07/31 00:37:06;;;;;;;6.70;2.67;;;15.80;99.90;;;;;;4993442;28;20099;-87
2023/07/31 00:39:33;;;;;;;5.88;2.70;;;15.80;99.90;;;;;;4993941;28;20111;-87
2023/07/31 00:41:59;;;;;;;4.82;1.67;;;15.90;99.90;;;;;;4993909;28;20046;-87
2023/07/31 00:44:24;;;;;;;9.13;1.92;;;15.80;99.90;;;;;;4993744;28;20045;-87
2023/07/31 00:46:50;;;;;;;6.65;2.88;;;15.80;99.90;;;;;;4977403;28;20044;-86
2023/07/31 00:49:16;;;;;;;6.18;2.67;;;15.80;99.90;;;;;;4992577;28;20415;-87
2023/07/31 00:51:42;;;;;;;5.22;1.85;;;15.80;99.90;;;;;;4993034;28;20044;-87
2023/07/31 00:54:08;;;;;;;7.00;2.72;;;15.80;99.90;;;;;;4993411;28;20038;-87
2023/07/31 00:56:33;;;;;;;6.55;2.63;;;15.80;99.90;;;;;;4993243;28;20041;-86
2023/07/31 00:58:59;;;;;;;7.50;2.97;;;15.80;99.90;;;;;;4992732;28;20046;-86
2023/07/31 01:01:25;;;;;;;4.70;1.42;;;15.80;99.90;;;;;;4993156;28;20038;-87
2023/07/31 01:03:53;;;;;;;7.00;2.90;;;15.70;99.90;;;;;;4994010;28;20402;-87
2023/07/31 01:06:45;;;;;;;6.00;1.77;;;15.70;99.90;;;;;;4992161;28;20056;-87
2023/07/31 01:09:20;;;;;;;6.00;2.30;;;15.70;99.90;;;;;;4992588;28;20434;-87
2023/07/31 01:11:56;;;;;;;7.40;2.60;;;15.70;99.90;;;;;;4993364;28;20124;-87
2023/07/31 01:14:22;;;;;;;4.45;1.23;;;15.70;99.90;;;;;;4995219;28;20038;-86
2023/07/31 01:16:47;;;;;;;5.20;2.25;;;15.70;99.90;;;;;;4996939;28;20092;-86
2023/07/31 01:19:15;;;;;;;5.22;2.05;;;15.60;99.90;;;;;;4996493;28;20044;-87
2023/07/31 01:21:59;;;;;;;5.25;2.15;;;15.70;99.90;;;;;;4996360;28;20120;-87
2023/07/31 01:24:38;;;;;;;4.95;1.38;;;15.70;99.90;;;;;;4997167;28;20103;-86
2023/07/31 01:27:06;;;;;;;5.35;2.10;;;15.60;99.90;;;;;;4996835;28;20108;-87
2023/07/31 01:30:16;;;;;;;4.72;1.35;;;15.60;99.90;;;;;;4996947;28;20037;-87
2023/07/31 01:32:43;;;;;;;3.53;1.13;;;15.60;99.90;;;;;;4918817;29;20505;-87
2023/07/31 01:35:09;;;;;;;3.95;1.17;;;15.60;99.90;;;;;;4902877;29;20127;-86
2023/07/31 01:37:36;;;;;;;3.90;1.75;;;15.50;99.90;;;;;;4943937;28;20062;-86
2023/07/31 01:40:02;;;;;;;4.15;1.38;;;15.60;99.90;;;;;;5009221;28;20045;-86
2023/07/31 01:42:28;;;;;;;3.47;1.25;;;15.60;99.90;;;;;;5023472;28;20503;-86
2023/07/31 01:44:53;;;;;;;4.43;1.60;;;15.50;99.90;;;;;;4998369;28;20042;-86
2023/07/31 01:47:19;;;;;;;4.22;1.20;;;15.60;99.90;;;;;;4998555;28;20406;-86
2023/07/31 01:49:44;;;;;;;4.32;1.60;;;15.60;99.90;;;;;;4982080;28;20038;-87
2023/07/31 01:52:10;;;;;;;4.00;1.35;;;15.60;99.90;;;;;;4997871;28;20042;-85
2023/07/31 01:54:36;;;;;;;6.70;1.98;;;15.60;99.90;;;;;;4997823;28;20045;-86
2023/07/31 01:57:02;;;;;;;2.97;1.30;;;15.60;99.90;;;;;;4980758;28;20042;-86
2023/07/31 01:59:28;;;;;;;3.40;1.30;;;15.60;99.90;;;;;;4980865;28;20045;-87
2023/07/31 02:01:54;;;;;;;3.30;1.17;;;15.60;99.90;;;;;;4996979;28;20096;-87
2023/07/31 02:04:20;;;;;;;3.55;1.60;;;15.60;99.90;;;;;;4996842;28;20073;-86
2023/07/31 02:06:45;;;;;;;4.60;1.90;;;15.60;99.90;;;;;;4978885;28;20034;-86
2023/07/31 02:09:11;;;;;;;4.25;1.90;;;15.70;99.90;;;;;;4996628;28;20077;-86
2023/07/31 02:11:36;;;;;;;4.53;1.75;;;15.70;99.90;;;;;;4996049;28;20042;-86
2023/07/31 02:14:02;;;;;;;3.72;0.90;;;15.70;99.90;;;;;;4980008;28;20041;-86
2023/07/31 02:16:28;;;;;;;4.32;1.70;;;15.70;99.90;;;;;;4995863;28;20481;-86
2023/07/31 02:18:53;;;;;;;4.68;1.60;;;15.70;99.90;;;;;;4995464;28;20042;-87
2023/07/31 02:21:19;;;;;;;1.98;0.80;;;15.70;99.90;;;;;;4996221;28;20125;-86
2023/07/31 02:23:44;;;;;;;3.13;1.42;;;15.70;99.90;;;;;;4996587;28;20041;-86
2023/07/31 02:26:10;;;;;;;3.95;1.60;;;15.70;99.90;;;;;;4995293;28;20040;-87
2023/07/31 02:28:36;;;;;;;4.13;1.70;;;15.80;99.90;;;;;;4996183;28;20518;-86
2023/07/31 02:31:01;;;;;;;5.00;1.60;;;15.80;99.90;;;;;;4979533;28;20040;-87
2023/07/31 02:33:27;;;;;;;1.17;0.70;;;15.80;99.90;;;;;;4979959;28;20125;-87
2023/07/31 02:35:52;;;;;;;3.33;1.13;;;15.80;99.90;;;;;;4996058;28;20610;-86
2023/07/31 02:38:18;;;;;;;2.58;0.85;;;15.70;99.90;;;;;;4995346;28;20049;-87
2023/07/31 02:40:44;;;;;;;4.68;1.55;;;15.70;99.90;;;;;;4995984;28;20042;-87
2023/07/31 02:43:10;;;;;;;3.10;1.13;;;15.70;99.90;;;;;;4995899;28;20077;-86
2023/07/31 02:45:35;;;;;;;1.80;0.90;;;15.80;99.90;;;;;;4995542;28;20482;-86
2023/07/31 02:48:01;;;;;;;4.97;1.20;;;15.70;99.90;;;;;;4995011;28;20079;-86
2023/07/31 02:50:28;;;;;;;4.80;1.83;;;15.70;99.90;;;;;;4979062;28;20042;-86
2023/07/31 02:52:54;;;;;;;3.40;1.17;;;15.70;99.90;;;;;;4979575;28;20034;-86
2023/07/31 02:55:19;;;;;;;5.80;2.10;;;15.80;99.90;;;;;;4995413;28;20558;-86
2023/07/31 02:57:45;;;;;;;3.90;1.73;;;15.80;99.90;;;;;;4978895;28;20084;-86
2023/07/31 03:00:11;;;;;;;2.00;0.80;;;15.80;99.90;;;;;;4995548;28;20038;-86
2023/07/31 03:02:36;;;;;;;5.75;2.08;;;15.80;99.90;;;;;;4995797;28;20040;-86
2023/07/31 03:05:02;;;;;;;5.88;2.20;;;15.90;99.90;;;;;;4995733;28;20049;-86
2023/07/31 03:07:28;;;;;;;5.43;2.08;;;15.90;99.90;;;;;;4994948;28;20033;-86
2023/07/31 03:09:54;;;;;;;3.97;1.20;;;15.90;99.90;;;;;;4995389;28;20049;-86
2023/07/31 03:12:19;;;;;;;4.78;1.80;;;15.90;99.90;;;;;;4995369;28;20052;-86
2023/07/31 03:14:45;;;;;;;4.57;1.42;;;16.00;99.90;;;;;;4978522;28;20502;-86
2023/07/31 03:17:10;;;;;;;4.18;2.10;;;15.90;99.90;;;;;;4978531;28;20038;-86
2023/07/31 03:19:36;;;;;;;3.75;1.42;;;15.90;99.90;;;;;;4994845;28;20045;-86
2023/07/31 03:22:01;;;;;;;4.43;1.70;;;16.00;99.90;;;;;;4995434;28;20065;-86
2023/07/31 03:24:28;;;;;;;5.03;1.77;;;16.00;99.90;;;;;;4995222;28;20038;-86
2023/07/31 03:26:54;;;;;;;4.75;1.92;;;16.00;99.90;;;;;;4994554;28;20045;-86
2023/07/31 03:29:19;;;;;;;4.28;1.10;;;16.10;99.90;;;;;;4994884;28;20069;-86
2023/07/31 03:31:45;;;;;;;3.10;1.23;;;16.00;99.90;;;;;;4994450;28;20060;-86
2023/07/31 03:34:10;;;;;;;4.65;1.95;;;16.00;99.90;;;;;;4995028;28;20038;-86
2023/07/31 03:36:36;;;;;;;4.72;1.73;;;16.00;99.90;;;;;;4994046;28;20418;-86
2023/07/31 03:39:02;;;;;;;3.72;1.13;;;16.10;99.90;;;;;;4994103;28;20049;-86
2023/07/31 03:41:27;;;;;;;4.45;1.75;;;16.10;99.90;;;;;;4995095;28;20041;-85
2023/07/31 03:43:54;;;;;;;2.72;1.05;;;16.10;99.90;;;;;;4994763;28;20088;-86
2023/07/31 03:46:19;;;;;;;4.40;1.70;;;16.10;99.90;;;;;;4994007;28;20041;-86
2023/07/31 03:48:45;;;;;;;4.80;1.45;;;16.10;99.90;;;;;;4994820;28;20507;-86
2023/07/31 03:51:10;;;;;;;1.52;1.00;;;16.10;99.90;;;;;;4993951;28;20609;-85
2023/07/31 03:53:36;;;;;;;2.88;1.13;;;16.10;99.90;;;;;;4978089;28;20042;-86
2023/07/31 03:56:01;;;;;;;2.42;1.02;;;16.10;99.90;;;;;;4978286;28;20048;-86
2023/07/31 03:58:27;;;;;;;4.22;1.60;;;16.00;99.90;;;;;;4994582;28;20045;-86
2023/07/31 04:00:53;;;;;;;2.33;0.95;;;16.10;99.90;;;;;;4994606;28;20037;-86
2023/07/31 04:03:18;;;;;;;4.80;1.50;;;16.10;99.90;;;;;;4978110;28;20069;-86
2023/07/31 04:05:44;;;;;;;3.58;1.45;;;16.10;99.90;;;;;;4994629;28;20096;-86
2023/07/31 04:08:10;;;;;;;4.32;1.50;;;16.20;99.90;;;;;;4993462;28;20038;-86
2023/07/31 04:10:35;;;;;;;4.35;1.48;;;16.30;99.90;;;;;;4976939;28;20041;-86
2023/07/31 04:13:01;;;;;;;1.70;0.90;;;16.20;99.90;;;;;;4977175;28;20108;-86
2023/07/31 04:15:26;;;;;;;2.70;1.00;;;16.20;99.90;;;;;;4976798;28;20045;-87
2023/07/31 04:17:52;;;;;;;3.83;0.98;;;16.20;99.90;;;;;;4992961;28;20076;-86
2023/07/31 04:20:18;;;;;;;2.25;1.10;;;16.20;99.90;;;;;;4992794;28;20042;-87
2023/07/31 04:22:43;;;;;;;5.35;1.50;;;16.20;99.90;;;;;;4993089;28;20034;-85
2023/07/31 04:25:09;;;;;;;4.82;1.60;;;16.20;99.90;;;;;;4993588;28;20038;-85
2023/07/31 04:27:34;;;;;;;4.32;1.60;;;16.30;99.90;;;;;;4977375;28;20036;-86
2023/07/31 04:30:00;;;;;;;2.08;0.73;;;16.30;99.90;;;;;;4993452;28;20046;-86
2023/07/31 04:32:26;;;;;;;4.68;1.52;;;16.30;99.90;;;;;;4993630;28;20092;-86
2023/07/31 04:34:51;;;;;;;4.20;0.93;;;16.30;99.90;;;;;;4992801;28;20046;-86
2023/07/31 04:37:17;;;;;;;4.50;1.65;;;16.30;99.90;;;;;;4977617;28;20049;-86
2023/07/31 04:39:42;;;;;;;4.85;1.60;;;16.30;99.90;;;;;;4977746;28;20038;-86
2023/07/31 04:42:08;;;;;;;5.07;1.80;;;16.40;99.90;;;;;;4977722;28;20550;-86
2023/07/31 04:44:33;;;;;;;5.00;1.40;;;16.40;99.90;;;;;;4993365;28;20041;-85
2023/07/31 04:46:59;;;;;;;6.18;2.13;;;16.30;99.90;;;;;;4993225;28;20439;-85
2023/07/31 04:49:25;;;;;;;8.20;2.72;;;16.30;99.90;;;;;;4993074;28;20053;-86
2023/07/31 04:51:50;;;;;;;5.93;1.73;;;16.40;99.90;;;;;;4993396;28;20049;-86
2023/07/31 04:54:16;;;;;;;7.85;2.45;;;16.40;99.90;;;;;;4993755;28;20494;-86
2023/07/31 04:56:42;;;;;;;15.77;6.75;;;16.40;99.90;;;;;;4993216;28;20048;-86
2023/07/31 04:59:07;;;;;;;15.95;7.43;;;16.40;99.90;;;;;;4993710;28;20050;-86
2023/07/31 05:01:33;;;;;;;16.23;7.57;;;16.50;99.90;;;;;;4993960;28;20030;-86
2023/07/31 05:03:59;;;;;;;12.90;4.15;;;16.50;99.90;;;;;;4993767;28;20553;-86
2023/07/31 05:06:24;;;;;;;17.45;7.78;;;16.60;99.90;;;;;;4993505;28;20073;-86
2023/07/31 05:08:50;;;;;;;18.02;8.35;;;16.60;99.90;;;;;;4993293;28;20525;-86
2023/07/31 05:11:15;;;;;;;19.83;8.48;;;16.60;99.90;;;;;;4993283;28;20042;-85
2023/07/31 05:13:41;;;;;;;15.07;4.88;;;16.70;99.90;;;;;;4993606;28;20057;-86
2023/07/31 05:16:07;;;;;;;18.40;8.82;;;16.70;99.90;;;;;;4977181;28;20073;-85
2023/07/31 05:18:32;;;;;;;17.38;8.60;;;16.70;99.90;;;;;;4976973;28;20049;-87
2023/07/31 05:20:58;;;;;;;14.60;4.95;;;16.70;99.90;;;;;;4977093;28;20038;-86
2023/07/31 05:23:23;;;;;;;14.73;5.35;;;16.70;99.90;;;;;;4977345;28;20042;-85
2023/07/31 05:25:49;;;;;;;22.80;9.85;;;16.70;99.90;;;;;;5011057;28;20038;-86
2023/07/31 05:28:14;;;;;;;23.98;10.35;;;16.70;99.90;;;;;;4976970;28;20037;-86
2023/07/31 05:30:40;;;;;;;18.23;6.55;;;16.70;99.90;;;;;;5009100;28;20503;-86
2023/07/31 05:33:06;;;;;;;24.17;10.00;;;16.70;99.90;;;;;;4976582;28;20038;-86
2023/07/31 05:35:31;;;;;;;28.33;10.93;;;16.80;99.90;;;;;;4977117;28;20040;-86
2023/07/31 05:37:57;;;;;;;24.38;10.88;;;16.80;99.90;;;;;;4977178;28;20081;-86
2023/07/31 05:40:22;;;;;;;24.73;10.48;;;16.80;99.90;;;;;;4976639;28;20049;-86
2023/07/31 05:42:48;;;;;;;27.33;11.32;;;16.80;99.90;;;;;;4993425;28;20494;-87
2023/07/31 05:45:14;;;;;;;26.83;10.30;;;16.90;99.90;;;;;;4992765;28;20044;-87
2023/07/31 05:47:40;;;;;;;19.85;6.82;;;16.90;99.90;;;;;;4992476;28;20030;-87
2023/07/31 05:50:05;;;;;;;24.00;11.18;;;16.90;99.90;;;;;;4992564;28;20778;-87
2023/07/31 05:52:31;;;;;;;25.38;10.70;;;16.90;99.90;;;;;;4975504;28;20104;-86
2023/07/31 05:54:57;;;;;;;17.20;5.68;;;16.90;99.90;;;;;;4992438;28;20041;-86
2023/07/31 05:57:22;;;;;;;23.67;10.90;;;16.90;99.90;;;;;;4992027;28;20041;-87
2023/07/31 05:59:48;;;;;;;25.98;11.52;;;16.90;99.90;;;;;;4992339;28;20122;-87
2023/07/31 06:02:13;;;;;;;24.45;11.50;;;16.90;99.90;;;;;;5011787;28;20645;-87
2023/07/31 06:04:39;;;;;;;24.30;12.02;;;16.90;99.90;;;;;;4995913;28;20056;-87
2023/07/31 06:07:05;;;;;;;21.58;11.30;;;17.00;99.90;;;;;;4979875;28;20033;-87
2023/07/31 06:09:30;;;;;;;20.75;6.55;;;17.00;99.90;;;;;;4979404;28;20675;-87
2023/07/31 06:11:59;;;;;;;25.83;12.32;;;16.90;99.90;;;;;;4995137;28;20046;-87
2023/07/31 06:14:25;;;;;;;16.55;6.82;;;17.00;99.90;;;;;;4983622;28;20038;-87
2023/07/31 06:16:50;;;;;;;23.73;12.27;;;16.90;99.90;;;;;;4982235;28;20053;-86
2023/07/31 06:19:16;;;;;;;20.15;6.43;;;16.90;99.90;;;;;;4977082;28;20042;-87
2023/07/31 06:21:44;;;;;;;24.75;11.65;;;16.90;99.90;;;;;;4976888;28;20073;-87
2023/07/31 06:24:12;;;;;;;19.88;8.10;;;16.90;99.90;;;;;;4960794;28;20038;-87
2023/07/31 06:26:37;;;;;;;26.08;12.07;;;16.90;99.90;;;;;;4960557;28;20038;-87
2023/07/31 06:29:03;;;;;;;23.23;12.75;;;16.90;99.90;;;;;;4976360;28;20042;-86
2023/07/31 06:31:28;;;;;;;16.27;6.25;;;16.90;99.90;;;;;;4976772;28;20477;-87
2023/07/31 06:33:54;;;;;;;26.10;12.07;;;16.90;99.90;;;;;;4965156;28;20452;-87
2023/07/31 06:36:20;;;;;;;23.80;12.38;;;17.00;99.90;;;;;;4960103;28;20053;-87
2023/07/31 06:38:45;;;;;;;24.15;12.02;;;17.00;99.90;;;;;;4959220;28;20053;-87
2023/07/31 06:41:11;;;;;;;25.08;11.38;;;17.00;99.90;;;;;;4976241;28;20044;-87
2023/07/31 06:43:37;;;;;;;18.00;6.78;;;17.00;99.90;;;;;;4960425;28;20038;-87
2023/07/31 06:46:07;;;;;;;23.33;11.68;;;16.90;99.90;;;;;;4976181;28;20121;-87
2023/07/31 06:48:33;;;;;;;24.52;10.90;;;17.00;99.90;;;;;;4975924;28;20069;-87
2023/07/31 06:51:00;;;;;;;19.00;7.32;;;16.90;99.90;;;;;;4976372;28;20115;-87
2023/07/31 06:53:25;;;;;;;21.38;10.38;;;16.90;99.90;;;;;;4958264;28;20089;-87
2023/07/31 06:55:51;;;;;;;19.83;6.88;;;16.90;99.90;;;;;;4976162;28;20046;-87
2023/07/31 06:58:17;;;;;;;21.25;10.50;;;16.90;99.90;;;;;;4959986;28;20038;-87
2023/07/31 07:00:43;;;;;;;13.10;5.90;;;16.90;99.90;;;;;;4959886;28;20045;-87
2023/07/31 07:03:09;;;;;;;23.23;10.73;;;16.90;99.90;;;;;;4975713;28;20042;-87
2023/07/31 07:05:35;;;;;;;19.88;10.70;;;16.90;99.90;;;;;;4976279;28;20042;-86
2023/07/31 07:08:00;;;;;;;20.08;9.52;;;16.90;99.90;;;;;;4975655;28;20085;-87
2023/07/31 07:10:26;;;;;;;18.45;8.65;;;16.90;99.90;;;;;;4959978;28;20042;-87
2023/07/31 07:12:52;;;;;;;12.57;4.35;;;16.90;99.90;;;;;;4975639;28;20587;-86
2023/07/31 07:15:18;;;;;;;16.73;7.88;;;16.80;99.90;;;;;;4975814;28;20057;-86
2023/07/31 07:17:43;;;;;;;15.55;8.27;;;16.80;99.90;;;;;;4961118;28;20050;-86
2023/07/31 07:20:09;;;;;;;18.38;8.50;;;16.80;99.90;;;;;;4967570;28;20041;-86
2023/07/31 07:22:35;;;;;;;16.40;7.93;;;16.90;99.90;;;;;;4966307;28;20046;-86
2023/07/31 07:25:01;;;;;;;16.90;7.97;;;16.90;99.90;;;;;;4984213;28;20046;-85
2023/07/31 07:27:27;;;;;;;11.93;4.15;;;16.90;99.90;;;;;;4969695;28;20408;-86
2023/07/31 07:29:53;;;;;;;17.38;7.70;;;16.80;99.90;;;;;;4991069;28;20041;-86
2023/07/31 07:32:19;;;;;;;17.17;7.97;;;16.90;99.90;;;;;;4989679;28;20434;-85
2023/07/31 07:34:44;;;;;;;16.15;7.90;;;16.90;99.90;;;;;;4986809;28;20042;-86
2023/07/31 07:37:10;;;;;;;15.38;4.85;;;16.90;99.90;;;;;;4994220;28;20052;-86
2023/07/31 07:39:35;;;;;;;15.65;7.43;;;16.90;99.90;;;;;;4994952;28;20038;-87
2023/07/31 07:42:01;;;;;;;15.63;8.00;;;17.00;99.90;;;;;;4978573;28;20060;-86
2023/07/31 07:44:27;;;;;;;14.88;8.07;;;17.00;99.90;;;;;;4994713;28;20120;-86
2023/07/31 07:46:52;;;;;;;13.68;7.22;;;17.00;99.90;;;;;;4977923;28;20502;-86
2023/07/31 07:49:18;;;;;;;16.17;7.15;;;17.00;99.90;;;;;;4977789;28;20042;-86
2023/07/31 07:51:43;;;;;;;13.65;7.57;;;17.00;99.90;;;;;;4993953;28;20044;-90
2023/07/31 07:54:09;;;;;;;12.50;3.92;;;17.00;99.90;;;;;;4993616;28;20053;-86
2023/07/31 07:56:36;;;;;;;13.05;6.72;;;17.00;99.90;;;;;;4977802;28;20049;-86
2023/07/31 07:59:02;;;;;;;13.75;7.38;;;16.90;99.90;;;;;;4978303;28;20088;-86
2023/07/31 08:01:27;;;;;;;12.85;6.85;;;17.00;99.90;;;;;;4978033;28;20038;-87
2023/07/31 08:03:53;;;;;;;8.95;4.10;;;17.00;99.90;;;;;;4977678;28;20042;-87
2023/07/31 08:06:18;;;;;;;12.55;4.57;;;16.90;99.90;;;;;;4994232;28;20041;-87
2023/07/31 08:08:44;;;;;;;11.43;5.95;;;16.90;99.90;;;;;;4994122;28;20569;-87
2023/07/31 08:11:10;;;;;;;11.50;5.70;;;17.00;99.90;;;;;;4994447;28;20038;-87
2023/07/31 08:13:36;;;;;;;9.20;3.70;;;17.00;99.90;;;;;;4994198;28;20517;-87
2023/07/31 08:16:03;;;;;;;7.40;4.18;;;17.00;99.90;;;;;;4984382;28;20046;-86
2023/07/31 08:18:30;;;;;;;9.75;4.60;;;17.00;99.90;;;;;;4974203;28;20404;-86
2023/07/31 08:20:56;;;;;;;7.57;3.17;;;17.00;99.90;;;;;;4974918;28;20100;-86
2023/07/31 08:23:21;;;;;;;8.80;5.00;;;17.00;99.90;;;;;;4974423;28;20439;-86
2023/07/31 08:25:49;;;;;;;10.40;4.97;;;17.00;99.90;;;;;;4974823;28;20043;-86
2023/07/31 08:28:15;;;;;;;11.05;5.40;;;17.00;99.90;;;;;;4957614;28;20042;-86
2023/07/31 08:30:41;;;;;;;9.77;4.53;;;17.10;99.90;;;;;;4974527;28;20133;-86
2023/07/31 08:33:07;;;;;;;8.88;4.50;;;17.10;99.90;;;;;;4973835;28;20121;-87
2023/07/31 08:35:33;;;;;;;8.27;2.80;;;17.10;99.90;;;;;;4958696;28;20472;-86
2023/07/31 08:37:59;;;;;;;8.55;4.20;;;17.10;99.90;;;;;;4974078;28;20042;-87
2023/07/31 08:40:25;;;;;;;7.28;3.58;;;17.20;99.90;;;;;;4974427;28;20046;-87
2023/07/31 08:42:53;;;;;;;9.20;3.67;;;17.20;99.90;;;;;;4974803;28;20128;-87
2023/07/31 08:45:20;;;;;;;8.68;3.80;;;17.30;99.90;;;;;;4958302;28;20034;-87
2023/07/31 08:47:50;;;;;;;8.07;3.55;;;17.40;99.90;;;;;;4956611;28;20065;-85
2023/07/31 08:50:18;;;;;;;7.70;2.97;;;17.40;99.90;;;;;;4981591;28;20045;-88
2023/07/31 08:52:46;;;;;;;7.38;3.80;;;17.40;99.90;;;;;;5008434;28;20042;-87
2023/07/31 08:55:11;;;;;;;5.35;2.35;;;17.40;99.90;;;;;;4985547;28;20125;-87
2023/07/31 08:57:38;;;;;;;8.15;3.65;;;17.50;99.90;;;;;;4977546;28;20203;-87
2023/07/31 09:00:06;;;;;;;8.50;3.50;;;17.50;99.90;;;;;;4993429;28;20046;-87
2023/07/31 09:02:40;;;;;;;7.75;3.08;;;17.60;99.90;;;;;;4993203;28;20676;-87
2023/07/31 09:05:07;;;;;;;7.22;3.30;;;17.60;99.90;;;;;;4977892;28;20104;-87
2023/07/31 09:07:35;;;;;;;7.55;3.05;;;17.70;99.90;;;;;;4993892;28;20077;-87
2023/07/31 09:10:01;;;;;;;7.18;3.60;;;17.70;99.90;;;;;;4993425;28;20041;-87
2023/07/31 09:12:28;;;;;;;7.95;3.55;;;17.70;99.90;;;;;;4977574;28;20075;-86
2023/07/31 09:14:53;;;;;;;4.93;1.73;;;17.70;99.90;;;;;;4977229;28;20042;-86
2023/07/31 09:17:36;;;;;;;6.68;3.08;;;17.70;99.90;;;;;;4993268;28;20050;-86
2023/07/31 09:20:25;;;;;;;6.18;2.47;;;17.70;99.90;;;;;;4977125;28;20046;-86
2023/07/31 09:22:51;;;;;;;3.60;1.35;;;17.70;99.90;;;;;;4977518;28;20037;-87
2023/07/31 09:25:22;;;;;;;5.28;2.20;;;17.70;99.90;;;;;;4985040;28;20562;-88
2023/07/31 09:27:48;;;;;;;5.70;2.28;;;17.70;99.90;;;;;;4982642;28;20456;-87
2023/07/31 09:30:15;;;;;;;5.40;2.28;;;17.70;99.90;;;;;;4983916;28;20117;-88
2023/07/31 09:32:40;;;;;;;4.13;1.25;;;17.70;99.90;;;;;;4966697;28;20053;-87
2023/07/31 09:35:28;;;;;;;3.88;1.58;;;17.70;99.90;;;;;;4984280;28;20030;-87
2023/07/31 09:38:40;;;;;;;4.30;1.60;;;17.80;99.90;;;;;;4971930;28;20038;-88
2023/07/31 09:41:08;;;;;;;4.35;1.55;;;17.80;99.90;;;;;;4919549;29;20048;-88
2023/07/31 09:43:53;;;;;;;;;;;;;;;;;;;;;
2023/07/31 09:46:22;;;;;;;3.33;1.40;;;17.80;99.90;;;;;;4934307;29;20428;-87
2023/07/31 09:48:48;;;;;;;4.00;1.48;;;17.80;99.90;;;;;;4937888;29;20146;-87
2023/07/31 09:51:13;;;;;;;4.45;1.50;;;17.80;99.90;;;;;;4937434;29;20492;-87
2023/07/31 09:53:39;;;;;;;2.67;1.52;;;17.90;99.90;;;;;;4936722;29;20050;-87
2023/07/31 09:56:05;;;;;;;3.80;1.65;;;17.90;99.90;;;;;;4937253;29;20043;-86
2023/07/31 09:58:34;;;;;;;3.10;1.30;;;17.90;99.90;;;;;;4937662;29;20116;-86
2023/07/31 10:01:01;;;;;;;4.03;1.50;;;17.90;99.90;;;;;;4921690;29;20047;-86
2023/07/31 10:03:29;;;;;;;4.47;2.25;;;18.00;99.90;;;;;;4921849;29;20045;-87
2023/07/31 10:05:57;;;;;;;2.67;1.38;;;18.00;99.90;;;;;;4937006;29;20125;-86
2023/07/31 10:08:31;;;;;;;3.90;1.63;;;18.00;99.90;;;;;;4937456;29;20515;-86
2023/07/31 10:11:00;;;;;;;4.82;2.20;;;18.00;99.90;;;;;;4920993;29;20137;-86
2023/07/31 10:13:29;;;;;;;4.38;1.95;;;18.10;99.90;;;;;;4937030;29;20143;-87
2023/07/31 10:15:58;;;;;;;4.65;1.55;;;18.20;99.90;;;;;;4921356;29;20121;-86
2023/07/31 10:18:24;;;;;;;5.20;2.22;;;18.20;99.90;;;;;;4972572;28;20100;-86
2023/07/31 10:20:50;;;;;;;4.60;2.17;;;18.20;99.90;;;;;;4991676;28;20049;-86
2023/07/31 10:23:16;;;;;;;5.43;2.38;;;18.30;99.90;;;;;;4974194;28;20038;-86
2023/07/31 10:25:42;;;;;;;4.85;2.85;;;18.30;99.90;;;;;;5012105;28;20041;-86
2023/07/31 10:28:08;;;;;;;5.82;2.78;;;18.30;99.90;;;;;;4979795;28;20070;-86
2023/07/31 10:30:38;;;;;;;6.93;2.97;;;18.40;99.90;;;;;;4996447;28;20058;-87
2023/07/31 10:33:04;;;;;;;5.32;2.80;;;18.40;99.90;;;;;;5012598;28;20406;-87
2023/07/31 10:35:30;;;;;;;6.38;3.13;;;18.50;99.90;;;;;;4995689;28;20379;-87
2023/07/31 10:37:55;;;;;;;5.90;2.72;;;18.50;99.90;;;;;;4978623;28;20041;-87
2023/07/31 10:40:27;;;;;;;5.05;2.58;;;18.50;99.90;;;;;;4996198;28;20108;-87
2023/07/31 10:42:59;;;;;;;5.60;2.72;;;18.60;99.90;;;;;;4980010;28;20068;-86
2023/07/31 10:45:30;;;;;;;;;;;18.60;99.90;;;;;;5013239;28;20510;-86
2023/07/31 10:48:00;;;;;;;5.60;2.40;;;18.60;99.90;;;;;;4995281;28;19918;-87
2023/07/31 10:50:26;;;;;;;5.45;2.35;;;18.70;99.90;;;;;;4979855;28;20133;-86
2023/07/31 10:52:57;;;;;;;5.30;2.30;;;18.80;99.90;;;;;;4995676;28;20041;-86
2023/07/31 10:55:41;;;;;;;3.85;2.03;;;18.90;99.90;;;;;;4978824;28;20120;-86
2023/07/31 10:58:14;;;;;;;4.60;2.40;;;19.00;99.90;;;;;;4995095;28;20048;-86
2023/07/31 11:00:44;;;;;;;5.05;2.28;;;19.10;99.90;;;;;;4979694;28;20054;-86
2023/07/31 11:03:13;;;;;;;5.20;2.65;;;19.10;99.90;;;;;;4995982;28;20042;-86
2023/07/31 11:05:53;;;;;;;5.40;2.72;;;19.10;99.90;;;;;;4995618;28;20087;-86
2023/07/31 11:08:24;;;;;;;5.30;2.63;;;19.10;99.90;;;;;;4979297;28;20510;-86
2023/07/31 11:11:02;;;;;;;4.78;2.40;;;19.10;99.90;;;;;;4995398;28;20414;-87
2023/07/31 11:13:31;;;;;;;5.28;2.70;;;19.10;99.90;;;;;;4995410;28;20038;-87
2023/07/31 11:15:57;;;;;;;7.18;3.10;;;19.00;99.90;;;;;;4976153;28;20566;-86
2023/07/31 11:18:23;;;;;;;5.80;3.00;;;19.00;99.90;;;;;;4993543;28;20126;-87
2023/07/31 11:20:48;;;;;;;5.85;3.20;;;19.00;99.90;;;;;;4977264;28;20422;-86
2023/07/31 11:23:16;;;;;;;7.10;2.95;;;19.00;99.90;;;;;;4978489;28;20504;-86
2023/07/31 11:25:42;;;;;;;6.30;3.03;;;19.00;99.90;;;;;;5012137;28;20026;-86
2023/07/31 11:28:12;;;;;;;5.20;2.65;;;19.00;99.90;;;;;;4978361;28;20490;-87
2023/07/31 11:30:40;;;;;;;5.15;2.40;;;18.90;99.90;;;;;;4995292;28;20037;-87
2023/07/31 11:33:06;;;;;;;4.68;2.28;;;19.00;99.90;;;;;;4978813;28;20042;-86
2023/07/31 11:35:34;;;;;;;5.75;2.38;;;19.00;99.90;;;;;;4978038;28;20044;-86
2023/07/31 11:38:00;;;;;;;4.25;2.22;;;19.10;99.90;;;;;;4994559;28;20584;-86
2023/07/31 11:40:29;;;;;;;3.75;1.45;;;19.10;99.90;;;;;;4978621;28;20037;-86
2023/07/31 11:42:56;;;;;;;4.43;2.40;;;19.20;99.90;;;;;;4994666;28;20042;-86
2023/07/31 11:45:27;;;;;;;5.60;3.00;;;19.20;99.90;;;;;;4994849;28;20091;-86
2023/07/31 11:47:57;;;;;;;5.57;3.00;;;19.10;99.90;;;;;;4988071;28;20482;-86
2023/07/31 11:50:25;;;;;;;6.50;3.10;;;19.20;99.90;;;;;;4975009;28;20406;-86
2023/07/31 11:52:59;;;;;;;5.18;2.80;;;19.10;99.90;;;;;;4959532;28;20042;-86
2023/07/31 11:55:26;;;;;;;6.93;3.63;;;19.20;99.90;;;;;;4979742;28;20034;-86
2023/07/31 11:57:53;;;;;;;5.97;2.60;;;19.10;99.90;;;;;;4984660;28;20038;-86
2023/07/31 12:00:19;;;;;;;5.93;2.75;;;19.00;99.90;;;;;;4982522;28;20046;-87
2023/07/31 12:02:45;;;;;;;5.70;2.80;;;18.90;99.90;;;;;;4984954;28;20503;-87
2023/07/31 12:05:12;;;;;;;6.05;2.83;;;18.90;99.90;;;;;;4984417;28;20042;-87
2023/07/31 12:07:53;;;;;;;5.60;2.97;;;18.80;99.90;;;;;;4969651;28;20122;-86
2023/07/31 12:10:32;;;;;;;6.45;3.38;;;18.90;99.90;;;;;;4994229;28;20081;-87
2023/07/31 12:13:14;;;;;;;6.18;2.72;;;18.90;99.90;;;;;;4994172;28;20132;-86
2023/07/31 12:15:42;;;;;;;2.55;1.35;;;18.90;99.90;;;;;;4994423;28;20100;-86
2023/07/31 12:18:13;;;;;;;5.75;2.97;;;19.00;99.90;;;;;;4977878;28;20121;-86
2023/07/31 12:20:44;;;;;;;5.28;2.35;;;19.00;99.90;;;;;;4994142;28;20046;-85
2023/07/31 12:23:27;;;;;;;4.40;2.35;;;19.10;99.90;;;;;;4993633;28;20037;-86
2023/07/31 12:26:06;;;;;;;6.30;3.50;;;19.10;99.90;;;;;;4994121;28;20041;-86
2023/07/31 12:28:41;;;;;;;7.38;3.90;;;19.10;99.90;;;;;;4993617;28;20042;-87
2023/07/31 12:31:09;;;;;;;6.90;3.90;;;19.10;99.90;;;;;;4994125;28;20049;-86
2023/07/31 12:33:37;;;;;;;9.65;4.93;;;19.10;99.90;;;;;;4994008;28;20041;-86
2023/07/31 12:36:06;;;;;;;7.70;4.82;;;19.00;99.90;;;;;;4993377;28;20517;-86
2023/07/31 12:38:32;;;;;;;10.43;6.00;;;19.00;99.90;;;;;;4977427;28;20045;-86
2023/07/31 12:40:57;;;;;;;8.50;5.60;;;19.00;99.90;;;;;;4993886;28;20034;-86
2023/07/31 12:43:23;;;;;;;9.75;6.32;;;19.00;99.90;;;;;;4977340;28;20041;-86
2023/07/31 12:45:49;;;;;;;7.95;4.65;;;18.90;99.90;;;;;;4993708;28;20132;-86